Time;durP1;ratioP1;P1;durP2;ratioP2;P2;SDS_P1;SDS_P2;PMS_P1;PMS_P2;Temp;Humidity;BMP_temperature;BMP_pressure;BME280_temperature;BME280_humidity;BME280_pressure;Samples;Min_cycle;Max_cycle;Signal;HPM_P1;HPM_P2
2021/03/03 00:02:10;;;;;;;29.40;19.30;;;;;;;4.33;75.88;97521.91;4998814;28;20034;-81
2021/03/03 00:04:36;;;;;;;31.67;18.60;;;;;;;4.30;75.82;97524.69;5005173;28;20472;-81
2021/03/03 00:07:03;;;;;;;33.17;20.40;;;;;;;4.31;76.09;97526.34;4989506;28;20446;-81
2021/03/03 00:09:28;;;;;;;36.80;20.37;;;;;;;4.27;76.19;97535.28;5011767;28;20044;-80
2021/03/03 00:11:54;;;;;;;37.23;21.33;;;;;;;4.27;76.59;97537.88;4986252;28;20838;-81
2021/03/03 00:14:20;;;;;;;31.30;20.10;;;;;;;4.29;75.83;97533.41;5004421;28;20084;-81
2021/03/03 00:16:45;;;;;;;37.43;20.93;;;;;;;4.22;76.07;97532.09;5004142;28;20363;-80
2021/03/03 00:19:12;;;;;;;36.00;19.97;;;;;;;4.17;76.22;97526.31;4991564;28;20050;-81
2021/03/03 00:21:38;;;;;;;31.37;19.60;;;;;;;4.05;76.93;97530.44;5007434;28;20096;-80
2021/03/03 00:24:04;;;;;;;35.67;21.30;;;;;;;4.04;76.24;97528.78;5005153;28;20580;-81
2021/03/03 00:26:30;;;;;;;31.97;20.20;;;;;;;3.99;76.14;97526.44;5004896;28;21074;-81
2021/03/03 00:28:56;;;;;;;31.10;19.83;;;;;;;3.92;76.49;97532.94;5009454;28;20583;-80
2021/03/03 00:31:23;;;;;;;29.30;19.40;;;;;;;3.90;77.01;97521.75;5012489;28;20029;-81
2021/03/03 00:33:49;;;;;;;31.87;19.97;;;;;;;4.04;76.08;97533.16;5004056;28;20634;-81
2021/03/03 00:36:15;;;;;;;29.70;18.27;;;;;;;3.97;75.90;97533.50;5004870;28;20470;-81
2021/03/03 00:38:40;;;;;;;31.50;19.77;;;;;;;3.95;75.96;97524.91;4989180;28;20476;-81
2021/03/03 00:41:06;;;;;;;31.70;19.50;;;;;;;3.95;76.09;97524.91;5024823;28;20106;-80
2021/03/03 00:43:32;;;;;;;30.40;20.57;;;;;;;4.00;75.82;97533.31;5000670;28;20595;-83
2021/03/03 00:45:59;;;;;;;35.90;19.50;;;;;;;3.95;75.37;97527.53;5004823;28;20033;-80
2021/03/03 00:48:25;;;;;;;31.37;19.23;;;;;;;3.89;76.13;97532.22;5005372;28;20504;-81
2021/03/03 00:50:50;;;;;;;28.87;19.13;;;;;;;3.86;75.88;97527.22;5001203;28;20874;-81
2021/03/03 00:53:16;;;;;;;33.13;20.33;;;;;;;3.89;75.75;97530.50;5004569;28;20032;-81
2021/03/03 00:55:49;;;;;;;35.07;18.50;;;;;;;3.90;75.33;97516.53;5020636;28;20164;-81
2021/03/03 00:58:17;;;;;;;31.30;19.90;;;;;;;3.94;75.14;97520.66;4983380;28;20997;-80
2021/03/03 01:00:52;;;;;;;32.73;19.77;;;;;;;4.00;75.41;97524.69;5004289;28;20503;-81
2021/03/03 01:03:19;;;;;;;33.90;20.73;;;;;;;4.03;75.43;97521.06;5007744;28;20510;-81
2021/03/03 01:05:49;;;;;;;29.63;18.67;;;;;;;4.05;75.17;97524.41;4994093;28;20436;-81
2021/03/03 01:08:15;;;;;;;30.67;18.60;;;;;;;4.13;75.06;97519.63;5008824;28;20453;-80
2021/03/03 01:10:42;;;;;;;35.60;19.57;;;;;;;4.18;74.47;97522.78;5001210;28;20547;-80
2021/03/03 01:13:09;;;;;;;32.13;19.77;;;;;;;4.11;74.66;97522.28;5007594;28;21000;-81
2021/03/03 01:15:36;;;;;;;27.83;18.13;;;;;;;4.24;74.49;97512.03;4999583;28;20460;-81
2021/03/03 01:18:08;;;;;;;29.97;18.80;;;;;;;4.28;74.55;97503.09;5011682;28;20513;-80
2021/03/03 01:20:34;;;;;;;29.80;19.13;;;;;;;4.37;73.40;97515.59;4985511;28;20830;-81
2021/03/03 01:23:00;;;;;;;28.77;19.67;;;;;;;4.22;74.14;97513.84;5005209;28;20018;-81
2021/03/03 01:25:26;;;;;;;29.77;18.90;;;;;;;4.15;74.22;97512.53;5000715;28;20464;-81
2021/03/03 01:27:53;;;;;;;32.33;20.00;;;;;;;4.11;74.43;97517.09;5007503;28;20034;-79
2021/03/03 01:30:19;;;;;;;30.77;19.40;;;;;;;4.09;74.23;97512.88;4998152;28;20467;-81
2021/03/03 01:32:45;;;;;;;30.93;18.67;;;;;;;4.05;74.53;97517.44;4997566;28;21009;-81
2021/03/03 01:35:12;;;;;;;30.37;18.77;;;;;;;4.02;74.84;97515.00;5003395;28;20449;-81
2021/03/03 01:37:37;;;;;;;31.13;19.50;;;;;;;4.06;75.20;97513.06;5006298;28;20026;-81
2021/03/03 01:40:04;;;;;;;31.87;19.00;;;;;;;3.99;75.52;97510.81;5005241;28;20858;-80
2021/03/03 01:42:29;;;;;;;31.40;19.77;;;;;;;3.97;74.95;97509.22;5000682;28;20053;-80
2021/03/03 01:44:55;;;;;;;32.67;19.93;;;;;;;3.96;75.26;97511.00;4991895;28;20487;-79
2021/03/03 01:47:21;;;;;;;30.83;19.03;;;;;;;3.97;75.62;97502.25;5004569;28;20041;-81
2021/03/03 01:49:48;;;;;;;29.90;19.50;;;;;;;3.99;75.68;97499.56;5000880;28;20133;-81
2021/03/03 01:52:16;;;;;;;32.53;20.03;;;;;;;3.94;75.27;97502.44;5000082;28;20587;-81
2021/03/03 01:54:43;;;;;;;35.13;19.33;;;;;;;3.88;75.65;97504.53;5009715;28;20555;-81
2021/03/03 01:57:09;;;;;;;30.93;20.77;;;;;;;3.85;75.58;97497.75;4999379;28;20468;-81
2021/03/03 01:59:35;;;;;;;31.47;18.90;;;;;;;3.85;75.79;97502.94;4984900;28;20467;-81
2021/03/03 02:02:01;;;;;;;33.00;19.47;;;;;;;3.84;75.67;97503.88;4983399;28;20483;-81
2021/03/03 02:04:26;;;;;;;32.50;19.37;;;;;;;3.75;76.01;97497.41;5003923;28;20038;-81
2021/03/03 02:07:16;;;;;;;32.57;19.43;;;;;;;3.69;76.08;97504.72;5008043;28;20505;-80
2021/03/03 02:10:14;;;;;;;33.53;20.03;;;;;;;3.68;76.44;97500.44;4999350;28;20156;-81
2021/03/03 02:12:55;;;;;;;33.20;20.47;;;;;;;3.69;75.96;97494.31;5010244;28;20464;-81
2021/03/03 02:15:22;;;;;;;30.57;19.87;;;;;;;3.61;76.09;97499.94;4996525;28;20506;-81
2021/03/03 02:17:49;;;;;;;36.60;20.87;;;;;;;3.47;76.93;97489.47;4983398;28;20453;-79
2021/03/03 02:20:17;;;;;;;33.73;22.07;;;;;;;3.38;77.13;97493.41;4983464;28;20464;-80
2021/03/03 02:22:59;;;;;;;33.70;21.13;;;;;;;3.43;77.20;97485.38;5006333;28;20450;-80
2021/03/03 02:25:30;;;;;;;29.60;19.47;;;;;;;3.40;77.02;97491.59;5005281;28;20457;-80
2021/03/03 02:28:00;;;;;;;30.10;18.90;;;;;;;3.32;76.79;97488.56;5006147;28;20844;-79
2021/03/03 02:30:29;;;;;;;31.80;20.57;;;;;;;3.33;76.79;97484.22;5005156;28;20598;-81
2021/03/03 02:32:55;;;;;;;33.20;20.40;;;;;;;3.31;76.31;97486.88;4993005;28;20576;-81
2021/03/03 02:35:22;;;;;;;32.67;20.07;;;;;;;3.22;76.56;97489.97;4981903;28;21075;-81
2021/03/03 02:37:49;;;;;;;33.60;20.40;;;;;;;2.97;77.99;97480.91;4985909;28;20491;-81
2021/03/03 02:40:16;;;;;;;31.90;19.83;;;;;;;2.96;78.18;97487.03;5018577;28;20464;-80
2021/03/03 02:42:42;;;;;;;30.23;19.13;;;;;;;3.10;77.57;97477.66;4994720;28;20453;-81
2021/03/03 02:45:14;;;;;;;31.73;19.53;;;;;;;2.87;78.32;97484.91;4996437;28;20562;-81
2021/03/03 02:47:40;;;;;;;37.10;20.43;;;;;;;2.58;79.60;97483.81;4997971;28;20479;-81
2021/03/03 02:50:08;;;;;;;31.77;19.17;;;;;;;2.71;79.35;97481.44;4997819;28;20448;-81
2021/03/03 02:52:53;;;;;;;30.80;18.20;;;;;;;2.53;79.10;97473.69;4999746;28;20476;-81
2021/03/03 02:55:21;;;;;;;35.30;20.30;;;;;;;2.36;80.29;97476.31;5009034;28;20468;-81
2021/03/03 02:57:47;;;;;;;32.70;20.90;;;;;;;2.37;80.89;97480.56;5004581;28;20830;-80
2021/03/03 03:00:19;;;;;;;32.37;18.87;;;;;;;2.31;80.94;97480.88;4995361;28;20598;-79
2021/03/03 03:02:48;;;;;;;35.40;21.27;;;;;;;2.35;81.02;97472.88;4997802;28;20113;-81
2021/03/03 03:05:16;;;;;;;34.70;19.47;;;;;;;2.15;81.21;97480.84;5007262;28;20488;-81
2021/03/03 03:07:48;;;;;;;33.17;20.47;;;;;;;2.15;81.43;97479.97;5007269;28;20479;-81
2021/03/03 03:10:15;;;;;;;36.37;20.33;;;;;;;2.09;81.86;97476.78;5011043;28;20465;-80
2021/03/03 03:13:01;;;;;;;33.60;20.27;;;;;;;2.08;82.17;97475.09;5003784;28;20451;-81
2021/03/03 03:15:31;;;;;;;36.33;20.07;;;;;;;2.03;82.45;97476.25;4995409;28;20612;-80
2021/03/03 03:18:07;;;;;;;38.33;21.97;;;;;;;2.00;82.26;97464.25;4996991;28;20464;-81
2021/03/03 03:20:35;;;;;;;32.90;20.13;;;;;;;2.02;82.09;97474.56;5003662;28;21091;-81
2021/03/03 03:23:04;;;;;;;36.30;20.80;;;;;;;2.04;82.31;97468.38;4982118;28;20464;-81
2021/03/03 03:25:31;;;;;;;34.03;20.37;;;;;;;2.04;82.21;97470.97;4998027;28;20477;-80
2021/03/03 03:27:59;;;;;;;34.00;20.40;;;;;;;2.01;82.16;97476.34;4986765;28;20504;-81
2021/03/03 03:30:27;;;;;;;37.10;21.53;;;;;;;1.91;82.80;97479.44;5001740;28;21003;-81
2021/03/03 03:32:57;;;;;;;31.37;20.20;;;;;;;1.94;83.12;97481.88;5002756;28;20477;-81
2021/03/03 03:35:25;;;;;;;35.13;20.87;;;;;;;1.97;82.59;97477.38;4997315;28;20462;-80
2021/03/03 03:37:51;;;;;;;33.00;20.87;;;;;;;1.98;83.03;97475.63;4994986;28;20469;-80
2021/03/03 03:40:18;;;;;;;35.30;20.40;;;;;;;2.02;82.85;97477.16;4983889;28;20457;-81
2021/03/03 03:42:45;;;;;;;40.40;22.93;;;;;;;2.10;82.38;97475.84;5014767;28;20476;-81
2021/03/03 03:45:12;;;;;;;37.47;21.67;;;;;;;2.21;81.68;97475.31;4986581;28;21492;-81
2021/03/03 03:47:39;;;;;;;42.23;22.17;;;;;;;2.14;81.55;97466.16;4998547;28;21102;-81
2021/03/03 03:50:06;;;;;;;38.83;21.33;;;;;;;2.21;82.10;97471.88;5015550;28;20448;-81
2021/03/03 03:52:34;;;;;;;33.07;20.90;;;;;;;2.24;81.95;97472.56;5015145;28;21001;-81
2021/03/03 03:54:59;;;;;;;35.77;21.07;;;;;;;2.28;81.32;97478.44;4986919;28;20456;-81
2021/03/03 03:57:26;;;;;;;35.70;20.60;;;;;;;2.26;81.17;97483.72;4979833;28;20456;-81
2021/03/03 03:59:51;;;;;;;37.97;21.13;;;;;;;2.26;81.47;97481.13;5009823;28;20054;-81
2021/03/03 04:02:17;;;;;;;35.30;20.70;;;;;;;2.31;81.52;97483.47;5005739;28;20497;-81
2021/03/03 04:04:43;;;;;;;33.10;20.60;;;;;;;2.33;81.29;97489.44;4977080;28;20025;-81
2021/03/03 04:07:09;;;;;;;34.93;20.77;;;;;;;2.38;80.49;97489.19;4999027;28;21008;-81
2021/03/03 04:09:36;;;;;;;32.47;19.97;;;;;;;2.43;80.45;97503.63;4995117;28;20093;-81
2021/03/03 04:12:02;;;;;;;32.80;20.07;;;;;;;2.43;80.03;97493.25;5003211;28;20030;-82
2021/03/03 04:14:28;;;;;;;35.20;19.33;;;;;;;2.42;79.64;97499.38;5018216;28;20504;-80
2021/03/03 04:16:53;;;;;;;35.60;19.60;;;;;;;2.45;79.44;97509.59;5005255;28;20444;-82
2021/03/03 04:19:19;;;;;;;32.90;20.17;;;;;;;2.32;79.68;97498.16;5002020;28;20344;-81
2021/03/03 04:21:45;;;;;;;27.93;18.43;;;;;;;2.32;79.65;97505.94;5001588;28;20376;-81
2021/03/03 04:24:11;;;;;;;36.73;19.60;;;;;;;2.22;79.96;97504.72;5000712;28;20076;-80
2021/03/03 04:26:37;;;;;;;30.97;20.63;;;;;;;1.98;80.89;97501.56;5005534;28;20034;-80
2021/03/03 04:29:02;;;;;;;36.53;24.10;;;;;;;1.83;81.91;97497.97;5005236;28;20505;-81
2021/03/03 04:31:28;;;;;;;32.37;20.87;;;;;;;1.57;82.76;97494.03;5010089;28;20033;-81
2021/03/03 04:33:54;;;;;;;39.13;21.73;;;;;;;1.62;82.68;97494.66;5011169;28;20028;-81
2021/03/03 04:36:20;;;;;;;39.70;22.57;;;;;;;1.72;82.58;97502.84;5000483;28;20042;-81
2021/03/03 04:38:45;;;;;;;33.00;20.57;;;;;;;1.73;82.13;97509.69;5001652;28;20057;-80
2021/03/03 04:41:18;;;;;;;34.10;21.50;;;;;;;1.75;82.15;97505.28;5024215;28;20038;-81
2021/03/03 04:43:44;;;;;;;35.90;21.27;;;;;;;1.78;81.68;97495.59;5003251;28;20041;-81
2021/03/03 04:46:10;;;;;;;34.07;21.47;;;;;;;1.78;81.90;97494.78;5011524;28;21017;-81
2021/03/03 04:48:37;;;;;;;38.27;20.97;;;;;;;1.81;81.96;97498.06;5017764;28;20461;-81
2021/03/03 04:51:03;;;;;;;36.47;21.17;;;;;;;1.84;82.08;97494.44;5011511;28;20088;-81
2021/03/03 04:53:31;;;;;;;33.23;21.13;;;;;;;1.84;81.11;97494.44;5025115;28;20488;-81
2021/03/03 04:55:57;;;;;;;31.63;19.53;;;;;;;1.87;81.51;97502.09;5002294;28;20538;-81
2021/03/03 04:58:23;;;;;;;36.27;22.10;;;;;;;1.75;81.95;97500.09;5008334;28;20542;-81
2021/03/03 05:00:48;;;;;;;32.30;19.87;;;;;;;1.69;82.18;97490.84;5008253;28;20030;-81
2021/03/03 05:03:14;;;;;;;33.80;21.03;;;;;;;1.46;82.42;97491.09;5002794;28;20033;-81
2021/03/03 05:05:39;;;;;;;37.10;21.03;;;;;;;1.59;82.36;97490.44;5008302;28;20022;-81
2021/03/03 05:08:05;;;;;;;36.37;21.40;;;;;;;1.65;81.95;97490.16;5024700;28;20025;-80
2021/03/03 05:10:31;;;;;;;34.87;19.87;;;;;;;1.66;82.18;97488.41;5003674;28;20033;-80
2021/03/03 05:12:56;;;;;;;37.03;21.93;;;;;;;1.66;82.23;97498.78;5005614;28;20551;-81
2021/03/03 05:15:22;;;;;;;35.63;21.20;;;;;;;1.61;82.13;97501.59;5000980;28;20033;-81
2021/03/03 05:17:48;;;;;;;36.00;20.87;;;;;;;1.53;82.45;97501.09;5001676;28;20030;-81
2021/03/03 05:20:14;;;;;;;36.83;21.70;;;;;;;1.63;82.80;97498.94;5026648;28;20475;-79
2021/03/03 05:22:39;;;;;;;38.63;24.20;;;;;;;1.58;83.01;97501.75;5023712;28;20025;-81
2021/03/03 05:25:06;;;;;;;38.23;22.80;;;;;;;1.66;83.19;97491.00;5005745;28;20463;-80
2021/03/03 05:27:32;;;;;;;35.07;22.93;;;;;;;1.64;82.74;97495.41;5029901;28;20578;-80
2021/03/03 05:29:57;;;;;;;35.33;20.83;;;;;;;1.54;82.94;97502.81;5008590;28;20547;-81
2021/03/03 05:32:23;;;;;;;38.57;23.00;;;;;;;1.51;83.23;97500.34;4983513;28;20071;-81
2021/03/03 05:34:49;;;;;;;39.00;24.60;;;;;;;1.58;82.96;97498.31;5005771;28;20022;-81
2021/03/03 05:37:14;;;;;;;37.30;22.73;;;;;;;1.76;82.63;97488.81;5011085;28;20376;-80
2021/03/03 05:39:41;;;;;;;42.23;24.03;;;;;;;1.81;82.45;97490.28;5013040;28;20033;-80
2021/03/03 05:42:07;;;;;;;34.67;20.97;;;;;;;1.79;82.51;97488.66;5010294;28;20055;-81
2021/03/03 05:44:33;;;;;;;37.17;21.00;;;;;;;1.74;81.93;97488.88;5022543;28;20989;-81
2021/03/03 05:47:01;;;;;;;34.73;21.93;;;;;;;1.68;82.56;97480.53;5005150;28;20063;-81
2021/03/03 05:49:28;;;;;;;35.47;21.07;;;;;;;1.72;82.65;97471.72;4997548;28;20547;-81
2021/03/03 05:51:54;;;;;;;34.77;21.17;;;;;;;1.77;82.27;97470.56;5022468;28;20465;-81
2021/03/03 05:54:21;;;;;;;34.20;21.30;;;;;;;1.80;82.02;97477.38;4987521;28;20539;-80
2021/03/03 05:56:48;;;;;;;37.63;22.13;;;;;;;1.80;82.54;97467.81;4999815;28;20480;-80
2021/03/03 05:59:16;;;;;;;35.07;22.63;;;;;;;1.83;81.74;97472.03;5015923;28;20464;-81
2021/03/03 06:01:45;;;;;;;36.67;21.90;;;;;;;1.88;81.56;97463.13;4986533;28;20527;-81
2021/03/03 06:04:12;;;;;;;42.13;24.87;;;;;;;1.84;81.48;97466.75;5009565;28;20460;-82
2021/03/03 06:06:42;;;;;;;39.90;24.70;;;;;;;1.96;81.41;97470.50;5022240;28;20476;-80
2021/03/03 06:09:08;;;;;;;38.73;24.63;;;;;;;1.89;81.31;97463.94;5001035;28;20612;-80
2021/03/03 06:11:34;;;;;;;40.33;24.13;;;;;;;1.96;81.99;97467.09;5008720;28;20571;-80
2021/03/03 06:14:00;;;;;;;40.90;23.43;;;;;;;1.99;81.62;97467.78;4997215;28;20026;-79
2021/03/03 06:16:28;;;;;;;44.83;23.97;;;;;;;2.10;81.06;97475.00;5005398;28;20984;-79
2021/03/03 06:18:55;;;;;;;39.30;22.73;;;;;;;2.11;81.11;97480.16;5014810;28;20045;-80
2021/03/03 06:21:32;;;;;;;41.60;23.13;;;;;;;2.22;80.08;97482.19;4983758;28;20666;-78
2021/03/03 06:24:02;;;;;;;40.63;21.73;;;;;;;2.26;80.68;97470.75;5002188;28;20583;-79
2021/03/03 06:26:35;;;;;;;35.10;20.80;;;;;;;2.31;79.98;97473.09;5012487;28;20479;-83
2021/03/03 06:29:12;;;;;;;36.92;21.55;;;;;;;2.30;80.01;97467.06;5018157;28;20547;-78
2021/03/03 06:31:38;;;;;;;45.87;22.67;;;;;;;2.32;79.49;97465.25;5003208;28;20450;-79
2021/03/03 06:34:14;;;;;;;34.77;20.97;;;;;;;2.33;79.82;97472.09;4995302;28;20440;-80
2021/03/03 06:36:43;;;;;;;35.13;21.63;;;;;;;2.38;80.11;97464.06;5001524;28;20026;-80
2021/03/03 06:39:35;;;;;;;38.53;21.13;;;;;;;2.45;79.52;97474.97;5001946;28;20468;-79
2021/03/03 06:42:04;;;;;;;39.57;23.57;;;;;;;2.52;79.59;97479.81;5012898;28;20447;-77
2021/03/03 06:44:45;;;;;;;36.93;22.23;;;;;;;2.59;79.27;97475.13;5009413;28;20920;-77
2021/03/03 06:47:11;;;;;;;36.57;21.73;;;;;;;2.64;78.93;97474.88;4997866;28;20456;-79
2021/03/03 06:49:39;;;;;;;35.57;23.40;;;;;;;2.34;79.34;97473.78;5003589;28;20459;-78
2021/03/03 06:52:05;;;;;;;35.60;22.80;;;;;;;2.35;80.04;97472.03;4995171;28;20095;-78
2021/03/03 06:54:33;;;;;;;36.20;20.70;;;;;;;2.40;79.85;97471.78;4989676;28;20821;-78
2021/03/03 06:57:04;;;;;;;37.67;21.70;;;;;;;2.46;79.43;97479.28;5001855;28;21280;-79
2021/03/03 06:59:33;;;;;;;41.17;21.90;;;;;;;2.55;79.12;97474.44;4981066;28;20469;-78
2021/03/03 07:02:08;;;;;;;35.07;20.40;;;;;;;2.76;77.83;97474.25;4996029;28;20494;-79
2021/03/03 07:04:36;;;;;;;33.73;21.40;;;;;;;2.74;77.45;97471.72;5010011;28;20468;-80
2021/03/03 07:07:13;;;;;;;37.13;22.33;;;;;;;2.73;78.60;97475.25;4982857;28;20532;-80
2021/03/03 07:09:43;;;;;;;39.47;22.90;;;;;;;2.80;77.61;97474.00;5019502;28;20475;-79
2021/03/03 07:12:24;;;;;;;37.17;21.77;;;;;;;2.87;77.68;97471.91;5004434;28;20488;-80
2021/03/03 07:15:09;;;;;;;35.13;20.20;;;;;;;2.96;77.61;97476.63;4996397;28;20458;-80
2021/03/03 07:17:40;;;;;;;33.83;21.10;;;;;;;2.98;77.15;97481.72;5019726;28;20942;-80
2021/03/03 07:20:14;;;;;;;38.47;21.40;;;;;;;3.07;77.32;97483.84;4989628;28;20504;-80
2021/03/03 07:23:01;;;;;;;34.03;21.50;;;;;;;3.24;76.65;97485.53;4992624;28;20492;-80
2021/03/03 07:25:30;;;;;;;37.57;21.97;;;;;;;3.26;76.56;97488.91;5000521;28;20483;-80
2021/03/03 07:28:00;;;;;;;39.13;22.20;;;;;;;3.36;76.50;97484.88;5003716;28;20449;-80
2021/03/03 07:30:27;;;;;;;37.17;21.53;;;;;;;3.38;76.97;97490.81;5009655;28;20515;-80
2021/03/03 07:32:53;;;;;;;37.17;22.70;;;;;;;3.56;75.73;97486.38;4998022;28;20472;-80
2021/03/03 07:35:27;;;;;;;39.33;22.43;;;;;;;3.61;75.79;97488.72;5005875;28;20547;-80
2021/03/03 07:38:01;;;;;;;42.03;22.10;;;;;;;3.71;75.60;97493.31;5003470;28;20029;-80
2021/03/03 07:40:35;;;;;;;39.10;23.40;;;;;;;3.87;75.05;97490.69;4989151;28;20795;-79
2021/03/03 07:43:08;;;;;;;38.43;25.27;;;;;;;3.87;75.78;97489.84;4984159;28;20496;-80
2021/03/03 07:45:42;;;;;;;31.35;18.63;;;;;;;3.91;75.72;97488.75;4979483;28;20515;-81
2021/03/03 07:48:15;;;;;;;41.30;24.20;;;;;;;3.98;75.60;97480.50;4998560;28;20821;-80
2021/03/03 07:50:53;;;;;;;32.50;22.20;;;;;;;4.12;75.53;97484.91;4982448;28;21037;-80
2021/03/03 07:53:20;;;;;;;36.10;21.73;;;;;;;4.11;75.84;97485.00;4994658;28;20476;-80
2021/03/03 07:55:48;;;;;;;35.40;24.83;;;;;;;3.93;76.42;97494.72;4985813;28;20539;-80
2021/03/03 07:58:23;;;;;;;42.57;23.10;;;;;;;4.11;76.74;97498.88;4984230;28;20472;-79
2021/03/03 08:00:50;;;;;;;41.47;25.67;;;;;;;4.38;75.22;97504.22;4979050;28;21022;-80
2021/03/03 08:03:43;;;;;;;47.97;25.03;;;;;;;4.44;75.25;97490.84;5008092;28;20448;-80
2021/03/03 08:06:30;;;;;;;36.37;22.10;;;;;;;4.54;75.26;97482.50;4983102;28;20568;-80
2021/03/03 08:09:05;;;;;;;37.33;22.97;;;;;;;4.78;74.11;97488.84;5001632;28;20504;-79
2021/03/03 08:11:38;;;;;;;37.93;22.63;;;;;;;4.92;73.22;97480.19;5003952;28;20479;-81
2021/03/03 08:14:31;;;;;;;45.50;28.30;;;;;;;4.75;75.22;97489.03;5004576;28;20114;-79
2021/03/03 08:17:08;;;;;;;36.13;22.70;;;;;;;4.45;76.74;97491.69;5005127;28;20061;-79
2021/03/03 08:19:55;;;;;;;51.23;22.00;;;;;;;4.29;77.56;97491.75;4990463;28;20516;-82
2021/03/03 08:22:53;;;;;;;38.93;23.23;;;;;;;4.48;77.35;97487.13;5000093;28;20872;-81
2021/03/03 08:25:47;;;;;;;35.63;23.30;;;;;;;4.76;76.52;97485.47;5002536;28;20313;-80
2021/03/03 08:28:33;;;;;;;39.10;24.63;;;;;;;5.03;74.55;97482.13;5012096;28;20073;-80
2021/03/03 08:31:08;;;;;;;32.07;22.63;;;;;;;5.29;73.88;97490.94;5019111;28;20033;-80
2021/03/03 08:33:41;;;;;;;35.67;22.50;;;;;;;5.12;74.74;97473.75;4983695;28;20050;-80
2021/03/03 08:36:11;;;;;;;41.38;21.55;;;;;;;4.64;75.27;97481.03;4983824;28;20041;-80
2021/03/03 08:38:37;;;;;;;32.00;21.40;;;;;;;4.51;75.78;97487.91;5001481;28;20042;-80
2021/03/03 08:41:16;;;;;;;38.33;23.40;;;;;;;4.85;74.92;97486.69;5018417;28;20116;-80
2021/03/03 08:43:44;;;;;;;37.17;22.93;;;;;;;5.04;75.46;97482.06;5005598;28;20108;-79
2021/03/03 08:46:19;;;;;;;36.50;22.63;;;;;;;5.20;75.41;97487.16;5000263;28;20042;-80
2021/03/03 08:48:57;;;;;;;39.53;24.73;;;;;;;5.59;74.07;97482.97;5020728;28;20061;-80
2021/03/03 08:51:35;;;;;;;40.87;23.40;;;;;;;5.72;74.68;97478.63;5004057;28;20046;-80
2021/03/03 08:54:11;;;;;;;36.00;23.53;;;;;;;5.48;74.10;97475.00;5013079;28;20076;-80
2021/03/03 08:56:40;;;;;;;33.90;21.47;;;;;;;5.68;73.85;97475.38;4998741;28;20068;-80
2021/03/03 08:59:14;;;;;;;32.23;22.20;;;;;;;5.68;74.27;97480.63;4997407;28;20103;-80
2021/03/03 09:02:12;;;;;;;31.25;21.10;;;;;;;6.04;73.49;97475.75;4984675;28;20029;-80
2021/03/03 09:04:38;;;;;;;32.67;20.43;;;;;;;6.02;73.12;97472.41;5003215;28;20029;-80
2021/03/03 09:07:06;;;;;;;31.97;21.20;;;;;;;6.14;72.60;97476.84;4996073;28;20034;-80
2021/03/03 09:09:52;;;;;;;32.33;20.90;;;;;;;6.31;71.58;97479.16;5016297;28;20553;-80
2021/03/03 09:12:21;;;;;;;29.73;20.63;;;;;;;6.49;71.52;97479.69;4996599;28;20461;-79
2021/03/03 09:14:49;;;;;;;35.83;21.93;;;;;;;6.24;72.50;97477.91;5018401;28;20029;-80
2021/03/03 09:17:21;;;;;;;46.30;26.43;;;;;;;6.16;73.65;97480.16;4982191;28;20053;-78
2021/03/03 09:19:47;;;;;;;52.70;28.60;;;;;;;6.50;72.69;97486.56;4997947;28;20040;-80
2021/03/03 09:22:18;;;;;;;44.17;26.63;;;;;;;6.66;71.66;97485.56;5001326;28;20611;-80
2021/03/03 09:24:45;;;;;;;60.07;28.17;;;;;;;6.74;71.71;97485.84;4997175;28;20029;-81
2021/03/03 09:27:11;;;;;;;41.90;25.03;;;;;;;6.94;70.39;97477.50;4984094;28;20038;-81
2021/03/03 09:29:42;;;;;;;43.47;24.60;;;;;;;7.21;69.60;97487.81;5027729;28;20071;-80
2021/03/03 09:32:13;;;;;;;43.10;24.37;;;;;;;7.36;69.24;97480.66;5003057;28;20033;-80
2021/03/03 09:34:44;;;;;;;38.37;22.17;;;;;;;7.58;69.24;97485.22;4998813;28;20037;-80
2021/03/03 09:37:10;;;;;;;32.47;21.03;;;;;;;7.48;66.28;97490.28;5017917;28;20084;-80
2021/03/03 09:39:41;;;;;;;28.83;17.77;;;;;;;7.76;62.04;97481.25;4997135;28;20030;-81
2021/03/03 09:42:21;;;;;;;30.77;20.53;;;;;;;7.84;61.39;97480.69;5003652;28;20025;-81
2021/03/03 09:44:57;;;;;;;33.70;19.67;;;;;;;8.00;61.98;97477.81;4993038;28;20033;-81
2021/03/03 09:47:28;;;;;;;26.00;16.50;;;;;;;8.07;60.50;97478.19;5013432;28;20144;-80
2021/03/03 09:49:55;;;;;;;26.33;17.20;;;;;;;8.03;60.34;97473.19;4989460;28;20052;-80
2021/03/03 09:52:21;;;;;;;27.63;19.37;;;;;;;8.16;60.09;97477.53;5005886;28;20602;-80
2021/03/03 09:54:48;;;;;;;28.73;17.10;;;;;;;8.19;60.02;97470.25;5012635;28;20084;-80
2021/03/03 09:57:20;;;;;;;28.43;16.57;;;;;;;8.35;59.76;97476.97;5000013;28;20041;-80
2021/03/03 09:59:48;;;;;;;29.67;19.50;;;;;;;8.48;59.09;97475.13;5001248;28;20022;-80
2021/03/03 10:02:28;;;;;;;27.57;16.30;;;;;;;8.61;58.59;97468.00;5000111;28;20056;-80
2021/03/03 10:04:55;;;;;;;42.67;22.33;;;;;;;8.83;62.98;97471.63;5000572;28;20041;-80
2021/03/03 10:07:25;;;;;;;32.70;22.20;;;;;;;8.95;63.27;97470.66;4998297;28;20090;-80
2021/03/03 10:09:57;;;;;;;27.13;18.20;;;;;;;8.84;59.16;97468.03;5001769;28;20021;-82
2021/03/03 10:12:33;;;;;;;27.30;18.13;;;;;;;8.89;58.15;97466.75;5006584;28;20515;-80
2021/03/03 10:15:10;;;;;;;26.27;16.63;;;;;;;8.95;56.45;97463.66;5001144;28;20074;-80
2021/03/03 10:17:46;;;;;;;31.10;17.33;;;;;;;9.06;57.65;97465.44;4994939;28;20498;-80
2021/03/03 10:20:39;;;;;;;27.60;16.70;;;;;;;8.88;57.34;97466.84;5012688;28;20038;-81
2021/03/03 10:23:35;;;;;;;30.75;17.63;;;;;;;8.96;57.01;97467.94;5017775;28;20029;-80
2021/03/03 10:26:08;;;;;;;27.03;17.43;;;;;;;9.18;56.45;97464.44;5001679;28;20079;-81
2021/03/03 10:28:37;;;;;;;23.23;17.08;;;;;;;9.19;57.58;97466.16;4997354;28;20045;-80
2021/03/03 10:31:18;;;;;;;28.47;17.70;;;;;;;9.42;56.25;97460.84;5023220;28;20025;-81
2021/03/03 10:33:44;;;;;;;27.47;18.67;;;;;;;9.33;57.54;97467.69;5001053;28;20049;-80
2021/03/03 10:36:21;;;;;;;23.77;15.90;;;;;;;9.49;57.09;97463.81;5007761;28;20038;-81
2021/03/03 10:38:51;;;;;;;28.60;16.40;;;;;;;9.60;56.00;97467.28;4997759;28;20034;-80
2021/03/03 10:41:24;;;;;;;24.30;16.83;;;;;;;9.70;54.94;97453.41;5004405;28;20044;-80
2021/03/03 10:43:51;;;;;;;26.00;17.83;;;;;;;9.62;55.96;97457.50;4987447;28;20699;-81
2021/03/03 10:46:19;;;;;;;32.17;19.20;;;;;;;9.71;55.77;97462.94;5019421;28;20034;-80
2021/03/03 10:48:47;;;;;;;28.57;17.40;;;;;;;9.75;56.13;97459.94;5003524;28;20038;-81
2021/03/03 10:51:15;;;;;;;25.20;17.33;;;;;;;9.93;55.04;97447.13;5001820;28;20084;-80
2021/03/03 10:53:54;;;;;;;27.70;17.27;;;;;;;10.03;54.29;97458.56;5008073;28;20022;-81
2021/03/03 10:56:33;;;;;;;24.03;17.83;;;;;;;10.12;55.65;97451.69;4997941;28;20041;-80
2021/03/03 10:59:27;;;;;;;25.60;17.40;;;;;;;10.15;54.35;97454.06;4996392;28;20030;-81
2021/03/03 11:02:07;;;;;;;27.57;18.33;;;;;;;10.34;54.87;97451.63;4980875;28;20033;-80
2021/03/03 11:04:39;;;;;;;26.60;17.73;;;;;;;10.46;54.49;97447.13;5001961;28;20040;-81
2021/03/03 11:07:05;;;;;;;24.60;17.47;;;;;;;10.50;54.45;97447.72;4982838;28;20080;-81
2021/03/03 11:09:35;;;;;;;23.77;16.47;;;;;;;10.71;53.94;97447.69;5001434;28;20068;-80
2021/03/03 11:12:02;;;;;;;24.17;16.57;;;;;;;10.71;54.09;97442.44;4987558;28;20033;-81
2021/03/03 11:14:31;;;;;;;24.70;17.07;;;;;;;10.61;52.50;97442.38;5004306;28;20133;-80
2021/03/03 11:17:01;;;;;;;22.97;15.83;;;;;;;10.90;51.82;97437.28;5003496;28;20040;-80
2021/03/03 11:19:30;;;;;;;29.23;17.00;;;;;;;10.98;52.42;97442.69;4994280;28;20117;-82
2021/03/03 11:21:57;;;;;;;26.43;16.17;;;;;;;10.98;51.77;97442.69;4996825;28;20041;-81
2021/03/03 11:24:24;;;;;;;24.83;16.33;;;;;;;10.98;52.02;97440.06;5000899;28;20480;-80
2021/03/03 11:26:51;;;;;;;25.67;15.73;;;;;;;10.94;50.87;97428.13;5003437;28;20029;-82
2021/03/03 11:29:21;;;;;;;30.33;21.67;;;;;;;11.17;51.61;97427.97;4997386;28;20053;-83
2021/03/03 11:31:49;;;;;;;29.23;16.53;;;;;;;11.07;50.52;97423.47;4981021;28;20041;-81
2021/03/03 11:34:14;;;;;;;29.37;16.83;;;;;;;11.28;50.53;97420.78;5002125;28;20599;-82
2021/03/03 11:36:43;;;;;;;23.80;16.97;;;;;;;11.26;50.54;97419.22;4983966;28;20117;-81
2021/03/03 11:39:14;;;;;;;23.83;16.43;;;;;;;11.42;47.86;97411.66;4999012;28;20037;-83